Time;durP1;ratioP1;P1;durP2;ratioP2;P2;SDS_P1;SDS_P2;PMS_P1;PMS_P2;Temp;Humidity;BMP_temperature;BMP_pressure;BME280_temperature;BME280_humidity;BME280_pressure;Samples;Min_cycle;Max_cycle;Signal;HPM_P1;HPM_P2
2022/08/01 00:00:01;;;;;;;6.93;3.47;;;;;;;21.07;78.81;96286.91;5039471;28;20208;-78
2022/08/01 00:02:27;;;;;;;3.65;3.00;;;;;;;21.06;78.82;96289.84;5038095;28;20227;-75
2022/08/01 00:04:54;;;;;;;4.40;3.25;;;;;;;21.12;78.47;96288.88;5038855;28;21160;-80
2022/08/01 00:07:21;;;;;;;7.32;3.42;;;;;;;21.05;76.81;96283.66;5039457;28;20220;-74
2022/08/01 00:09:49;;;;;;;5.95;3.25;;;;;;;21.13;77.92;96285.94;5039551;28;20235;-80
2022/08/01 00:12:15;;;;;;;3.97;2.85;;;;;;;21.01;76.76;96292.41;5039301;28;20225;-74
2022/08/01 00:14:41;;;;;;;6.72;3.28;;;;;;;21.22;76.65;96287.19;5039423;28;20704;-76
2022/08/01 00:17:08;;;;;;;4.25;2.50;;;;;;;21.13;75.53;96291.31;5039710;28;20632;-75
2022/08/01 00:19:34;;;;;;;5.72;2.78;;;;;;;21.21;77.69;96287.44;5039300;28;20201;-74
2022/08/01 00:22:01;;;;;;;4.32;3.00;;;;;;;21.21;76.36;96285.56;5040135;28;20575;-77
2022/08/01 00:24:27;;;;;;;5.97;3.08;;;;;;;21.20;77.71;96285.81;5038905;28;20197;-75
2022/08/01 00:26:55;;;;;;;4.43;2.83;;;;;;;21.18;77.97;96285.22;5038876;28;20697;-77
2022/08/01 00:29:22;;;;;;;5.22;3.03;;;;;;;20.97;78.43;96289.41;5038674;28;20208;-78
2022/08/01 00:31:48;;;;;;;5.13;3.30;;;;;;;20.89;80.43;96288.97;5038649;28;20228;-76
2022/08/01 00:34:15;;;;;;;4.90;3.10;;;;;;;20.80;79.11;96290.41;5037827;28;20205;-76
2022/08/01 00:36:41;;;;;;;5.90;3.08;;;;;;;20.68;80.36;96288.78;5039237;28;20211;-74
2022/08/01 00:39:08;;;;;;;3.75;3.20;;;;;;;20.55;79.00;96289.88;5041528;28;20205;-77
2022/08/01 00:41:34;;;;;;;3.92;2.97;;;;;;;20.32;80.33;96294.47;5041590;28;20197;-80
2022/08/01 00:44:05;;;;;;;4.30;3.40;;;;;;;20.47;79.74;96289.44;5039755;28;20212;-82
2022/08/01 00:46:31;;;;;;;6.97;3.33;;;;;;;20.34;81.15;96281.66;5043373;28;20213;-76
2022/08/01 00:48:58;;;;;;;5.38;3.60;;;;;;;20.31;79.80;96287.47;5043955;28;20193;-74
2022/08/01 00:51:25;;;;;;;7.00;4.18;;;;;;;20.34;80.60;96289.66;5042511;28;20228;-77
2022/08/01 00:53:52;;;;;;;6.05;3.88;;;;;;;20.06;81.10;96291.47;5041199;28;20223;-76
2022/08/01 00:56:20;;;;;;;6.57;3.90;;;;;;;20.26;81.63;96287.38;5043033;28;20205;-77
2022/08/01 00:58:47;;;;;;;5.78;4.18;;;;;;;20.27;80.93;96289.00;5042149;28;20690;-74
2022/08/01 01:01:14;;;;;;;8.00;3.90;;;;;;;20.30;81.82;96291.19;5042696;28;20208;-77
2022/08/01 01:03:41;;;;;;;6.78;3.47;;;;;;;20.14;82.72;96291.09;5041746;28;20600;-78
2022/08/01 01:06:20;;;;;;;4.35;3.47;;;;;;;20.29;81.54;96292.28;5042570;28;20201;-80
2022/08/01 01:08:59;;;;;;;5.78;3.72;;;;;;;20.23;81.15;96285.16;5042222;28;20205;-74
2022/08/01 01:11:29;;;;;;;5.22;3.38;;;;;;;20.14;80.52;96294.59;5041991;28;20232;-77
2022/08/01 01:14:04;;;;;;;6.82;3.05;;;;;;;20.16;79.28;96295.16;5041630;28;20217;-74
2022/08/01 01:16:34;;;;;;;3.97;3.10;;;;;;;20.26;80.64;96290.03;5041920;28;20204;-75
2022/08/01 01:19:04;;;;;;;7.35;3.30;;;;;;;20.06;80.56;96286.94;5041793;28;20204;-75
2022/08/01 01:21:48;;;;;;;6.80;2.78;;;;;;;20.10;80.97;96296.13;5041671;28;20217;-75
2022/08/01 01:24:25;;;;;;;7.05;3.30;;;;;;;20.18;83.14;96295.75;5041100;28;20212;-77
2022/08/01 01:26:58;;;;;;;4.82;2.90;;;;;;;20.11;82.55;96296.94;5041977;28;21038;-83
2022/08/01 01:29:31;;;;;;;4.30;3.35;;;;;;;19.90;82.35;96300.97;5042474;28;20201;-74
2022/08/01 01:32:03;;;;;;;4.13;3.30;;;;;;;19.76;83.16;96294.22;5041668;28;20603;-74
2022/08/01 01:34:32;;;;;;;5.88;3.17;;;;;;;19.71;84.85;96290.63;5040846;28;20193;-75
2022/08/01 01:37:02;;;;;;;4.80;3.17;;;;;;;19.67;83.79;96300.16;5041531;28;20205;-79
2022/08/01 01:39:30;;;;;;;4.95;3.28;;;;;;;19.82;83.51;96295.97;5041443;28;20201;-81
2022/08/01 01:41:58;;;;;;;5.43;3.78;;;;;;;19.63;83.19;96297.13;5038248;28;20304;-77
2022/08/01 01:44:27;;;;;;;7.57;3.30;;;;;;;19.55;82.08;96298.50;5040775;28;20201;-74
2022/08/01 01:46:56;;;;;;;5.05;3.38;;;;;;;19.60;82.76;96294.94;5041607;28;20205;-74
2022/08/01 01:49:26;;;;;;;6.53;3.40;;;;;;;19.58;83.72;96293.53;5040687;28;20208;-76
2022/08/01 01:51:55;;;;;;;6.22;3.05;;;;;;;19.65;83.48;96289.69;5039234;28;20693;-76
2022/08/01 01:54:23;;;;;;;4.10;3.10;;;;;;;19.39;83.10;96291.97;5040271;28;20198;-78
2022/08/01 01:56:51;;;;;;;3.60;2.85;;;;;;;19.33;83.13;96289.41;5040820;28;20202;-74
2022/08/01 01:59:21;;;;;;;5.13;3.47;;;;;;;19.48;82.59;96293.28;5040817;28;21101;-80
2022/08/01 02:01:52;;;;;;;5.15;3.20;;;;;;;19.38;84.35;96298.38;5040592;28;20198;-81
2022/08/01 02:04:20;;;;;;;7.72;3.20;;;;;;;19.11;82.89;96294.47;5039983;28;20212;-74
2022/08/01 02:06:47;;;;;;;5.82;3.25;;;;;;;19.07;86.04;96295.16;5039338;28;20209;-81
2022/08/01 02:09:18;;;;;;;4.05;2.75;;;;;;;19.31;83.70;96291.50;5040761;28;20197;-75
2022/08/01 02:11:46;;;;;;;7.57;2.97;;;;;;;19.19;83.27;96298.69;5040660;28;20205;-74
2022/08/01 02:14:13;;;;;;;5.88;3.20;;;;;;;19.37;84.97;96295.94;5039139;28;20222;-77
2022/08/01 02:16:42;;;;;;;3.70;2.75;;;;;;;19.39;83.63;96293.84;5037333;28;20237;-75
2022/08/01 02:19:11;;;;;;;4.53;3.03;;;;;;;19.56;84.79;96294.81;5040635;28;20205;-82
2022/08/01 02:21:41;;;;;;;4.57;2.85;;;;;;;19.57;82.25;96298.03;5040550;28;20216;-74
2022/08/01 02:24:15;;;;;;;3.90;2.80;;;;;;;19.63;82.28;96302.47;5039684;28;21127;-81
2022/08/01 02:26:47;;;;;;;4.60;2.70;;;;;;;19.69;82.00;96301.56;5040501;28;20205;-75
2022/08/01 02:29:18;;;;;;;4.97;2.47;;;;;;;19.69;79.60;96311.41;5040823;28;20208;-77
2022/08/01 02:31:48;;;;;;;3.22;2.42;;;;;;;19.68;79.21;96305.28;5039972;28;20275;-77
2022/08/01 02:34:19;;;;;;;4.85;2.45;;;;;;;19.83;80.64;96308.31;5039861;28;20206;-78
2022/08/01 02:36:47;;;;;;;7.60;2.60;;;;;;;19.83;80.87;96308.31;5040347;28;20204;-80
2022/08/01 02:39:19;;;;;;;5.07;2.83;;;;;;;19.82;79.04;96311.22;5040389;28;20201;-74
2022/08/01 02:41:48;;;;;;;3.60;2.55;;;;;;;19.75;80.32;96315.84;5038001;28;20197;-76
2022/08/01 02:44:24;;;;;;;3.92;2.38;;;;;;;19.80;78.57;96318.66;5039521;28;20247;-76
2022/08/01 02:46:53;;;;;;;4.75;2.45;;;;;;;19.82;79.72;96319.25;5039312;28;20290;-78
2022/08/01 02:49:25;;;;;;;3.95;2.55;;;;;;;19.70;78.49;96313.06;5038769;28;20197;-77
2022/08/01 02:51:55;;;;;;;3.92;2.50;;;;;;;19.77;78.99;96319.13;5038921;28;20268;-74
2022/08/01 02:54:23;;;;;;;4.40;2.70;;;;;;;19.73;78.31;96307.28;5038575;28;20201;-77
2022/08/01 02:56:52;;;;;;;2.78;2.20;;;;;;;19.81;78.21;96309.59;5042624;28;20193;-75
2022/08/01 02:59:24;;;;;;;4.25;2.60;;;;;;;19.92;77.18;96312.31;5047775;28;20212;-77
2022/08/01 03:01:54;;;;;;;4.43;2.58;;;;;;;19.98;77.95;96310.56;5049824;28;20208;-74
2022/08/01 03:04:23;;;;;;;3.63;2.40;;;;;;;19.85;77.90;96311.56;5049485;28;20216;-77
2022/08/01 03:06:51;;;;;;;7.97;2.50;;;;;;;19.92;77.97;96308.78;5048143;28;20231;-76
2022/08/01 03:09:19;;;;;;;3.08;2.30;;;;;;;19.91;77.59;96312.53;5049608;28;20791;-75
2022/08/01 03:11:48;;;;;;;4.13;2.50;;;;;;;19.93;79.53;96321.94;5048308;28;20229;-79
2022/08/01 03:14:16;;;;;;;3.40;2.42;;;;;;;19.66;78.21;96318.03;5047987;28;20202;-76
2022/08/01 03:16:46;;;;;;;3.60;2.55;;;;;;;19.80;79.45;96326.69;5047026;28;20201;-75
2022/08/01 03:19:14;;;;;;;3.78;2.60;;;;;;;19.52;78.89;96323.03;5048665;28;20677;-75
2022/08/01 03:21:45;;;;;;;3.75;2.70;;;;;;;19.48;80.13;96321.88;5049195;28;20221;-75
2022/08/01 03:24:13;;;;;;;6.20;3.10;;;;;;;19.36;79.78;96326.34;5047905;28;20201;-75
2022/08/01 03:26:40;;;;;;;5.35;2.88;;;;;;;19.13;80.65;96327.13;5048195;28;20205;-76
2022/08/01 03:29:11;;;;;;;4.38;2.63;;;;;;;19.30;81.24;96327.28;5047873;28;20581;-77
2022/08/01 03:31:42;;;;;;;5.43;3.47;;;;;;;19.11;81.25;96329.19;5048729;28;20201;-78
2022/08/01 03:34:09;;;;;;;4.82;2.97;;;;;;;19.13;82.04;96327.13;5048479;28;20602;-75
2022/08/01 03:36:47;;;;;;;5.43;3.20;;;;;;;19.07;81.46;96332.56;5048515;28;20208;-76
2022/08/01 03:39:17;;;;;;;5.63;3.22;;;;;;;19.10;83.69;96332.09;5047689;28;20193;-75
2022/08/01 03:41:51;;;;;;;12.25;3.70;;;;;;;18.93;82.21;96336.41;5045103;28;20208;-75
2022/08/01 03:44:23;;;;;;;10.95;3.80;;;;;;;19.03;83.64;96334.03;5038581;28;20981;-78
2022/08/01 03:46:57;;;;;;;7.78;3.72;;;;;;;18.93;82.71;96341.75;5036732;28;20826;-78
2022/08/01 03:49:28;;;;;;;5.85;3.42;;;;;;;18.99;83.54;96340.84;5037455;28;20892;-70
2022/08/01 03:51:56;;;;;;;6.43;3.35;;;;;;;19.09;83.27;96341.97;5038337;28;20803;-70
2022/08/01 03:54:25;;;;;;;12.35;4.03;;;;;;;19.20;81.86;96346.53;5037958;28;20206;-70
2022/08/01 03:56:53;;;;;;;3.78;2.50;;;;;;;19.14;80.35;96355.47;5038595;28;20197;-70
2022/08/01 03:59:21;;;;;;;5.35;3.00;;;;;;;19.32;80.17;96343.91;5037618;28;20205;-70
2022/08/01 04:01:48;;;;;;;8.07;2.70;;;;;;;19.37;79.87;96347.50;5038803;28;20205;-70
2022/08/01 04:04:15;;;;;;;6.28;2.75;;;;;;;19.36;79.69;96345.06;5037947;28;20201;-71
2022/08/01 04:06:44;;;;;;;5.75;2.80;;;;;;;19.29;80.37;96341.69;5038341;28;20668;-71
2022/08/01 04:09:11;;;;;;;4.95;2.65;;;;;;;19.30;80.33;96343.31;5038020;28;20890;-71
2022/08/01 04:11:39;;;;;;;6.38;2.50;;;;;;;19.37;80.43;96344.84;5038276;28;20427;-71
2022/08/01 04:14:06;;;;;;;4.72;2.85;;;;;;;19.28;80.57;96346.19;5036347;28;21171;-71
2022/08/01 04:16:32;;;;;;;4.50;2.75;;;;;;;19.34;80.23;96349.84;5038276;28;20555;-71
2022/08/01 04:18:59;;;;;;;5.80;2.85;;;;;;;19.34;79.77;96345.31;5038892;28;20197;-71
2022/08/01 04:21:30;;;;;;;5.40;2.92;;;;;;;19.44;79.92;96350.91;5037720;28;20223;-71
2022/08/01 04:24:03;;;;;;;4.97;2.75;;;;;;;19.53;79.59;96351.41;5036790;28;20224;-71
2022/08/01 04:26:32;;;;;;;5.88;2.90;;;;;;;19.57;79.20;96353.38;5038732;28;20238;-71
2022/08/01 04:29:02;;;;;;;4.85;2.67;;;;;;;19.62;79.24;96359.66;5038580;28;20205;-71
2022/08/01 04:31:31;;;;;;;5.47;2.95;;;;;;;19.63;79.09;96355.94;5037832;28;20208;-71
2022/08/01 04:33:59;;;;;;;6.78;2.83;;;;;;;19.70;78.63;96362.03;5037505;28;20228;-71
2022/08/01 04:36:27;;;;;;;5.88;2.80;;;;;;;19.75;78.61;96358.63;5037960;28;20299;-71
2022/08/01 04:38:58;;;;;;;5.18;2.72;;;;;;;19.74;78.75;96360.50;5038117;28;20204;-71
2022/08/01 04:41:26;;;;;;;5.30;2.97;;;;;;;19.74;78.98;96363.19;5037816;28;20713;-71
2022/08/01 04:43:54;;;;;;;4.72;2.97;;;;;;;19.72;79.89;96364.47;5035372;28;20335;-71
2022/08/01 04:46:23;;;;;;;5.35;3.05;;;;;;;19.91;78.43;96369.50;5037798;28;20784;-71
2022/08/01 04:48:51;;;;;;;4.45;3.15;;;;;;;19.97;78.88;96368.59;5038205;28;20198;-71
2022/08/01 04:51:21;;;;;;;4.97;2.53;;;;;;;19.89;78.84;96370.75;5038159;28;20201;-71
2022/08/01 04:53:48;;;;;;;5.18;2.75;;;;;;;19.90;78.58;96377.75;5037200;28;20227;-71
2022/08/01 04:56:16;;;;;;;6.97;3.13;;;;;;;19.91;79.63;96380.22;5037838;28;20201;-71
2022/08/01 04:58:43;;;;;;;7.03;2.95;;;;;;;20.04;78.99;96384.53;5037871;28;20208;-71
2022/08/01 05:01:10;;;;;;;5.25;3.13;;;;;;;20.09;78.27;96382.78;5037281;28;20561;-71
2022/08/01 05:03:38;;;;;;;5.63;3.05;;;;;;;20.23;78.05;96386.88;5036875;28;20228;-71
2022/08/01 05:06:05;;;;;;;6.95;3.05;;;;;;;20.29;77.20;96377.91;5037425;28;20205;-71
2022/08/01 05:08:31;;;;;;;5.90;3.10;;;;;;;20.30;77.14;96382.19;5037242;28;20232;-71
2022/08/01 05:10:58;;;;;;;7.78;2.78;;;;;;;20.45;75.83;96379.88;5037210;28;20197;-71
2022/08/01 05:13:25;;;;;;;4.25;2.90;;;;;;;20.55;75.90;96385.44;5036572;28;21187;-71
2022/08/01 05:15:52;;;;;;;8.60;3.20;;;;;;;20.62;75.20;96395.00;5037054;28;20209;-71
2022/08/01 05:18:18;;;;;;;9.80;3.17;;;;;;;20.66;74.96;96389.97;5036680;28;20197;-71
2022/08/01 05:20:47;;;;;;;6.10;2.90;;;;;;;20.84;75.48;96393.34;5037609;28;20216;-71
2022/08/01 05:23:13;;;;;;;6.18;2.72;;;;;;;20.83;74.76;96390.91;5036627;28;20725;-71
2022/08/01 05:25:40;;;;;;;5.28;2.65;;;;;;;20.78;75.22;96394.28;5039189;28;20230;-71
2022/08/01 05:28:06;;;;;;;7.20;2.90;;;;;;;20.78;75.99;96398.84;5041171;28;20571;-71
2022/08/01 05:30:33;;;;;;;4.70;2.60;;;;;;;20.65;76.04;96399.88;5042187;28;21049;-71
2022/08/01 05:32:59;;;;;;;3.30;2.58;;;;;;;20.74;76.52;96395.81;5039645;28;20287;-71
2022/08/01 05:35:26;;;;;;;9.23;3.08;;;;;;;20.78;76.75;96401.53;5042109;28;20220;-71
2022/08/01 05:37:53;;;;;;;5.13;2.72;;;;;;;20.90;76.74;96401.25;5041947;28;20205;-71
2022/08/01 05:40:20;;;;;;;4.07;2.22;;;;;;;20.82;75.29;96405.34;5040685;28;20201;-71
2022/08/01 05:42:47;;;;;;;5.20;2.90;;;;;;;20.94;75.34;96406.97;5037009;28;20227;-71
2022/08/01 05:45:13;;;;;;;4.32;2.72;;;;;;;20.91;74.76;96410.94;5040449;28;20201;-71
2022/08/01 05:47:39;;;;;;;4.38;2.70;;;;;;;20.96;74.41;96413.72;5040106;28;20212;-71
2022/08/01 05:50:07;;;;;;;4.53;2.72;;;;;;;21.05;74.50;96404.25;5040756;28;20198;-71
2022/08/01 05:52:33;;;;;;;8.23;2.38;;;;;;;21.24;73.97;96411.03;5039318;28;20265;-71
2022/08/01 05:55:01;;;;;;;6.32;2.60;;;;;;;21.41;73.67;96403.91;5040551;28;20216;-71
2022/08/01 05:57:27;;;;;;;2.70;2.22;;;;;;;21.30;72.13;96404.75;5039751;28;20201;-71
2022/08/01 05:59:54;;;;;;;4.57;2.53;;;;;;;21.33;73.43;96401.56;5040099;28;20204;-71
2022/08/01 06:02:20;;;;;;;5.88;2.70;;;;;;;21.21;72.51;96400.81;5039578;28;20232;-71
2022/08/01 06:04:47;;;;;;;4.72;2.70;;;;;;;21.40;72.11;96404.09;5040178;28;20295;-71
2022/08/01 06:07:13;;;;;;;3.60;2.40;;;;;;;21.62;72.10;96408.59;5040495;28;20217;-71
2022/08/01 06:09:40;;;;;;;4.15;2.30;;;;;;;21.68;72.41;96413.00;5040350;28;20213;-71
2022/08/01 06:12:08;;;;;;;8.43;2.83;;;;;;;21.75;73.25;96408.28;5038825;28;20224;-71
2022/08/01 06:14:34;;;;;;;3.67;2.30;;;;;;;21.75;72.53;96409.09;5038673;28;20225;-71
2022/08/01 06:17:01;;;;;;;7.93;2.75;;;;;;;21.60;71.33;96411.53;5040035;28;20451;-71
2022/08/01 06:19:27;;;;;;;3.75;2.67;;;;;;;21.59;70.96;96420.63;5040174;28;20295;-71
2022/08/01 06:21:54;;;;;;;3.33;2.05;;;;;;;21.59;71.21;96420.63;5039024;28;20589;-71
2022/08/01 06:24:22;;;;;;;6.68;2.58;;;;;;;21.79;71.29;96425.53;5039096;28;20721;-71
2022/08/01 06:26:49;;;;;;;6.68;2.88;;;;;;;21.92;71.49;96428.72;5039570;28;20201;-71
2022/08/01 06:29:17;;;;;;;4.63;2.58;;;;;;;21.85;69.86;96430.75;5038546;28;20216;-71
2022/08/01 06:31:43;;;;;;;6.25;2.65;;;;;;;21.63;70.43;96429.00;5037665;28;20212;-72
2022/08/01 06:34:10;;;;;;;3.97;2.30;;;;;;;21.77;70.71;96431.13;5038986;28;20221;-71
2022/08/01 06:36:36;;;;;;;4.60;2.35;;;;;;;21.57;69.92;96424.59;5038498;28;20296;-71
2022/08/01 06:39:03;;;;;;;3.63;2.65;;;;;;;21.74;69.51;96428.13;5039464;28;20205;-71
2022/08/01 06:41:29;;;;;;;4.60;2.58;;;;;;;21.94;69.97;96423.91;5038904;28;20212;-72
2022/08/01 06:43:56;;;;;;;4.50;2.60;;;;;;;21.90;69.75;96432.72;5034030;28;20217;-74
2022/08/01 06:46:24;;;;;;;3.63;2.30;;;;;;;21.96;69.18;96424.50;5037698;28;20220;-72
2022/08/01 06:48:50;;;;;;;3.22;2.10;;;;;;;21.87;70.18;96430.50;5038994;28;20553;-73
2022/08/01 06:51:19;;;;;;;3.95;2.70;;;;;;;22.05;69.43;96426.53;5038184;28;20572;-73
2022/08/01 06:53:46;;;;;;;7.05;2.78;;;;;;;22.21;70.04;96424.91;5035827;28;20701;-73
2022/08/01 06:56:12;;;;;;;3.22;2.28;;;;;;;22.43;70.46;96421.28;5037747;28;20208;-75
2022/08/01 06:58:39;;;;;;;5.13;2.25;;;;;;;22.54;71.24;96420.34;5038033;28;20201;-72
2022/08/01 07:01:06;;;;;;;3.03;2.15;;;;;;;22.61;68.91;96415.66;5036864;28;20201;-72
2022/08/01 07:03:36;;;;;;;4.03;2.60;;;;;;;22.67;68.36;96420.84;5035786;28;20287;-73
2022/08/01 07:06:02;;;;;;;4.18;2.67;;;;;;;22.72;67.63;96412.03;5036192;28;20954;-74
2022/08/01 07:08:29;;;;;;;4.00;2.47;;;;;;;22.79;68.07;96418.84;5037393;28;20201;-71
2022/08/01 07:10:58;;;;;;;4.55;2.50;;;;;;;22.86;68.25;96418.66;5037369;28;20206;-72
2022/08/01 07:13:25;;;;;;;4.05;2.13;;;;;;;22.87;67.25;96420.31;5035780;28;20221;-73
2022/08/01 07:15:52;;;;;;;4.55;2.10;;;;;;;23.11;66.79;96411.78;5035018;28;20225;-74
2022/08/01 07:18:19;;;;;;;4.75;2.60;;;;;;;23.20;68.90;96407.59;5037064;28;20228;-73
2022/08/01 07:20:47;;;;;;;4.07;2.55;;;;;;;23.42;68.30;96403.81;5036893;28;20209;-73
2022/08/01 07:23:14;;;;;;;3.95;2.33;;;;;;;23.57;67.05;96403.97;5035455;28;20770;-73
2022/08/01 07:25:41;;;;;;;3.03;2.20;;;;;;;23.56;68.19;96405.06;5037468;28;20205;-72
2022/08/01 07:28:07;;;;;;;3.38;2.10;;;;;;;23.64;66.47;96393.84;5037429;28;20501;-74
2022/08/01 07:30:34;;;;;;;3.58;1.98;;;;;;;23.82;65.38;96388.13;5036593;28;20201;-73
2022/08/01 07:33:01;;;;;;;3.60;1.80;;;;;;;23.77;65.10;96393.44;5036187;28;20984;-72
2022/08/01 07:35:28;;;;;;;2.15;1.60;;;;;;;23.92;65.90;96389.03;5036665;28;20205;-74
2022/08/01 07:37:55;;;;;;;4.15;2.20;;;;;;;24.03;64.32;96400.69;5037365;28;20197;-75
2022/08/01 07:40:22;;;;;;;2.85;1.83;;;;;;;24.17;64.31;96399.19;5036075;28;20213;-74
2022/08/01 07:42:48;;;;;;;4.18;1.75;;;;;;;23.94;64.02;96399.53;5035006;28;20221;-75
2022/08/01 07:45:15;;;;;;;2.33;1.73;;;;;;;24.28;63.69;96388.22;5036606;28;20670;-72
2022/08/01 07:47:42;;;;;;;3.35;2.10;;;;;;;24.20;64.47;96394.09;5036031;28;20650;-73
2022/08/01 07:50:09;;;;;;;3.95;1.90;;;;;;;24.49;63.93;96383.84;5036181;28;20197;-74
2022/08/01 07:52:36;;;;;;;3.35;1.98;;;;;;;24.31;63.30;96392.28;5036087;28;20318;-74
2022/08/01 07:55:04;;;;;;;2.50;1.50;;;;;;;24.63;64.79;96386.63;5034501;28;20221;-73
2022/08/01 07:57:31;;;;;;;2.47;1.60;;;;;;;24.35;61.43;96396.94;5036736;28;20205;-73
2022/08/01 07:59:57;;;;;;;2.97;1.63;;;;;;;24.61;62.03;96388.75;5036244;28;20553;-73
2022/08/01 08:02:24;;;;;;;1.95;1.70;;;;;;;24.65;61.13;96389.88;5036739;28;20220;-73
2022/08/01 08:04:50;;;;;;;3.83;1.77;;;;;;;24.72;60.87;96395.06;5037328;28;20232;-73
2022/08/01 08:07:17;;;;;;;2.80;1.33;;;;;;;24.75;59.66;96387.22;5036132;28;20319;-76
2022/08/01 08:09:43;;;;;;;2.75;1.67;;;;;;;24.71;61.37;96382.66;5036823;28;20209;-75
2022/08/01 08:12:11;;;;;;;2.95;1.40;;;;;;;25.05;60.89;96382.03;5036611;28;20660;-72
2022/08/01 08:14:38;;;;;;;3.17;1.67;;;;;;;25.06;60.31;96386.34;5035792;28;20236;-73
2022/08/01 08:17:05;;;;;;;3.33;1.65;;;;;;;24.90;60.32;96384.63;5036886;28;20197;-72
2022/08/01 08:19:33;;;;;;;2.78;1.80;;;;;;;25.13;59.16;96378.84;5036344;28;20231;-73
2022/08/01 08:21:59;;;;;;;3.10;1.60;;;;;;;25.16;58.92;96383.69;5036426;28;20221;-73
2022/08/01 08:24:27;;;;;;;1.90;1.50;;;;;;;25.13;59.87;96373.44;5035467;28;20194;-72
2022/08/01 08:26:55;;;;;;;4.00;1.67;;;;;;;25.39;59.59;96380.53;5036356;28;20209;-76
2022/08/01 08:29:24;;;;;;;3.15;1.92;;;;;;;25.17;57.71;96382.63;5036333;28;20197;-74
2022/08/01 08:31:51;;;;;;;2.10;1.50;;;;;;;25.10;57.55;96375.84;5036226;28;20281;-72
2022/08/01 08:34:18;;;;;;;4.93;1.95;;;;;;;25.25;59.83;96371.31;5035673;28;20220;-73
2022/08/01 08:36:44;;;;;;;2.47;1.65;;;;;;;25.58;58.02;96371.69;5035884;28;20316;-77
2022/08/01 08:39:11;;;;;;;2.08;1.55;;;;;;;25.37;57.22;96378.13;5037668;28;20201;-73
2022/08/01 08:41:37;;;;;;;5.10;1.88;;;;;;;25.31;57.56;96371.06;5036396;28;20220;-76
2022/08/01 08:44:05;;;;;;;4.00;1.73;;;;;;;25.46;56.95;96376.50;5035203;28;20208;-79
2022/08/01 08:46:34;;;;;;;4.90;1.70;;;;;;;25.83;58.84;96377.97;5034690;28;20860;-73
2022/08/01 08:49:02;;;;;;;2.35;1.73;;;;;;;25.77;56.57;96370.13;5036490;28;20205;-73
2022/08/01 08:51:31;;;;;;;5.72;2.22;;;;;;;25.68;56.59;96377.09;5036768;28;20678;-73
2022/08/01 08:53:59;;;;;;;2.55;1.70;;;;;;;25.82;56.87;96375.53;5032968;28;20576;-74
2022/08/01 08:56:29;;;;;;;4.97;1.80;;;;;;;25.90;58.17;96383.94;5036166;28;20208;-75
2022/08/01 08:58:56;;;;;;;3.92;1.55;;;;;;;26.08;57.60;96382.56;5036747;28;20236;-73
2022/08/01 09:01:23;;;;;;;3.92;2.00;;;;;;;26.12;57.75;96383.66;5039204;28;20954;-74
2022/08/01 09:03:51;;;;;;;2.63;1.88;;;;;;;26.35;57.33;96381.28;5039032;28;20213;-78
2022/08/01 09:06:17;;;;;;;5.93;1.83;;;;;;;26.06;55.01;96384.75;5040862;28;20201;-73
2022/08/01 09:08:44;;;;;;;2.10;1.70;;;;;;;26.18;54.58;96379.88;5040188;28;20208;-74
2022/08/01 09:11:11;;;;;;;3.42;1.73;;;;;;;26.43;54.78;96386.91;5040105;28;20204;-73
2022/08/01 09:13:38;;;;;;;2.00;1.60;;;;;;;26.61;56.18;96390.97;5039306;28;20224;-75
2022/08/01 09:16:06;;;;;;;2.78;1.77;;;;;;;26.83;55.82;96383.34;5038940;28;20200;-74
2022/08/01 09:18:34;;;;;;;2.83;1.60;;;;;;;26.89;52.25;96383.06;5038924;28;20201;-76
2022/08/01 09:21:11;;;;;;;2.45;1.60;;;;;;;26.91;53.39;96386.31;5040052;28;20213;-75
2022/08/01 09:23:42;;;;;;;2.30;1.80;;;;;;;26.75;52.62;96375.78;5039447;28;20316;-79
2022/08/01 09:26:09;;;;;;;4.70;1.75;;;;;;;27.15;52.76;96380.03;5039141;28;20216;-78
2022/08/01 09:28:36;;;;;;;1.10;0.90;;;;;;;26.94;52.48;96382.25;5038874;28;20201;-75
2022/08/01 09:31:08;;;;;;;4.45;1.70;;;;;;;26.98;55.56;96378.72;5039730;28;20220;-76
2022/08/01 09:33:50;;;;;;;7.82;1.70;;;;;;;26.88;56.79;96386.03;5038741;28;20581;-73
2022/08/01 09:36:18;;;;;;;3.03;1.90;;;;;;;26.97;52.36;96373.59;5037667;28;20206;-74
2022/08/01 09:38:45;;;;;;;2.58;1.25;;;;;;;27.08;51.57;96372.50;5039984;28;20239;-75
2022/08/01 09:41:12;;;;;;;2.67;1.60;;;;;;;27.31;52.44;96364.53;5038767;28;20208;-72
2022/08/01 09:43:39;;;;;;;2.10;1.60;;;;;;;27.54;50.57;96372.00;5038511;28;20228;-73
2022/08/01 09:46:11;;;;;;;2.10;1.48;;;;;;;27.70;50.40;96372.47;5039086;28;20213;-75
2022/08/01 09:48:39;;;;;;;2.25;1.50;;;;;;;27.73;49.46;96365.69;5038677;28;20259;-74
2022/08/01 09:51:07;;;;;;;1.65;1.30;;;;;;;27.90;49.47;96368.81;5038746;28;20247;-72
2022/08/01 09:53:50;;;;;;;33.08;16.08;;;;;;;28.89;50.60;96372.59;5037748;28;20766;-74
2022/08/01 09:56:17;;;;;;;2.38;1.45;;;;;;;28.21;48.17;96362.91;5038362;28;20263;-75
2022/08/01 09:58:51;;;;;;;21.15;10.60;;;;;;;29.14;49.64;96367.69;5038737;28;20228;-73
2022/08/01 10:01:17;;;;;;;4.15;2.63;;;;;;;28.66;49.92;96359.78;5038938;28;20201;-73
2022/08/01 10:03:44;;;;;;;3.55;2.60;;;;;;;28.74;48.66;96364.59;5037881;28;20228;-73
2022/08/01 10:06:21;;;;;;;19.02;9.57;;;;;;;28.69;49.75;96351.06;5038286;28;20212;-75
2022/08/01 10:08:49;;;;;;;4.15;2.05;;;;;;;29.18;49.12;96361.38;5038421;28;20205;-75
2022/08/01 10:11:17;;;;;;;2.17;1.70;;;;;;;28.82;47.54;96356.66;5038444;28;21061;-72
2022/08/01 10:13:44;;;;;;;4.18;1.70;;;;;;;28.84;47.39;96349.03;5038073;28;20249;-73
2022/08/01 10:16:13;;;;;;;27.88;13.38;;;;;;;28.91;49.29;96352.22;5038555;28;20209;-73
2022/08/01 10:18:42;;;;;;;2.38;1.73;;;;;;;28.64;46.98;96354.66;5038776;28;20212;-76
2022/08/01 10:21:09;;;;;;;2.33;1.40;;;;;;;28.19;47.97;96362.38;5038768;28;20212;-72
2022/08/01 10:23:37;;;;;;;3.25;1.60;;;;;;;28.46;46.89;96358.09;5038791;28;20232;-73
2022/08/01 10:26:06;;;;;;;2.47;1.42;;;;;;;28.26;46.69;96346.63;5038721;28;20205;-71
2022/08/01 10:28:36;;;;;;;2.55;1.40;;;;;;;28.33;47.00;96350.63;5038303;28;20205;-72
2022/08/01 10:31:03;;;;;;;1.42;1.20;;;;;;;28.30;45.88;96344.13;5039404;28;20263;-72
2022/08/01 10:33:31;;;;;;;4.10;1.35;;;;;;;28.16;46.29;96340.47;5038022;28;20731;-71
2022/08/01 10:35:58;;;;;;;2.50;1.50;;;;;;;27.87;47.18;96345.00;5038418;28;20229;-72
2022/08/01 10:38:24;;;;;;;2.42;1.48;;;;;;;27.33;50.05;96344.22;5038723;28;20197;-72
2022/08/01 10:40:51;;;;;;;2.30;1.48;;;;;;;27.30;48.47;96343.97;5038656;28;20237;-74
2022/08/01 10:43:19;;;;;;;1.52;1.20;;;;;;;27.55;49.42;96341.94;5037449;28;20213;-73
2022/08/01 10:45:45;;;;;;;3.83;1.30;;;;;;;27.61;47.47;96338.16;5038740;28;20216;-72
2022/08/01 10:48:19;;;;;;;2.50;1.30;;;;;;;27.75;48.57;96337.22;5038566;28;20205;-73
2022/08/01 10:50:48;;;;;;;2.22;1.45;;;;;;;27.79;48.41;96343.69;5038506;28;20903;-77
2022/08/01 10:53:17;;;;;;;2.42;1.30;;;;;;;27.79;47.04;96340.19;5037948;28;20228;-73
2022/08/01 10:55:59;;;;;;;2.45;1.40;;;;;;;28.01;46.18;96337.84;5034470;28;20233;-74
2022/08/01 10:58:31;;;;;;;3.13;1.25;;;;;;;28.50;47.97;96329.28;5038242;28;20579;-75
2022/08/01 11:01:15;;;;;;;1.75;1.35;;;;;;;29.04;46.08;96327.09;5038400;28;20263;-74
2022/08/01 11:03:43;;;;;;;1.88;1.50;;;;;;;28.67;48.00;96321.53;5037620;28;20236;-73
2022/08/01 11:06:17;;;;;;;1.95;1.20;;;;;;;28.36;47.68;96320.22;5037987;28;20208;-73
2022/08/01 11:08:51;;;;;;;3.45;1.50;;;;;;;28.87;48.31;96317.78;5038500;28;20230;-74
2022/08/01 11:11:19;;;;;;;2.65;1.65;;;;;;;28.44;47.46;96314.16;5037859;28;20682;-76
2022/08/01 11:14:06;;;;;;;1.88;1.35;;;;;;;28.16;48.80;96318.78;5037048;28;20217;-74
2022/08/01 11:16:35;;;;;;;3.03;1.30;;;;;;;27.48;48.09;96313.53;5037476;28;20263;-75
2022/08/01 11:19:02;;;;;;;1.73;1.23;;;;;;;27.57;50.55;96315.44;5037274;28;20205;-73
2022/08/01 11:22:00;;;;;;;1.58;1.20;;;;;;;28.37;46.70;96308.28;5036926;28;20240;-76
2022/08/01 11:24:57;;;;;;;3.67;1.50;;;;;;;28.46;45.93;96312.00;5036010;28;20197;-73
2022/08/01 11:27:25;;;;;;;2.25;1.33;;;;;;;28.52;44.79;96310.81;5037078;28;20230;-74
2022/08/01 11:30:25;;;;;;;1.95;1.40;;;;;;;28.48;44.28;96309.78;5036792;28;20974;-72
2022/08/01 11:32:53;;;;;;;2.15;1.30;;;;;;;28.46;45.13;96301.13;5035925;28;20716;-73
2022/08/01 11:35:23;;;;;;;7.55;1.60;;;;;;;28.73;45.49;96301.41;5037137;28;20240;-76
2022/08/01 11:37:51;;;;;;;2.63;1.58;;;;;;;28.33;46.20;96301.81;5034012;28;20201;-76
2022/08/01 11:40:20;;;;;;;2.10;1.20;;;;;;;28.14;45.70;96304.66;5037536;28;20711;-75